Skip to content

Investors

Investors

Ownership Profile

Shareholder Breakdown
Shareholder Holders Values ($) % O/S Shares
Institution 60 65 48.30 5,724,029
Mutual Fund 22 6 4.54 537,655
Institutional Shareholder Rotation
Shareholder Holders Values Change ($) % O/S Shares Change
Buyers 30 5.44 4.14 490,122
Sellers 20 -2.17 1.64 -193,976
Net -- 3.27 2.50 296,146
Institutional Shareholder Concentration
Shareholder Values ($) % O/S Shares
Top 10 Inst. 56 41.11 4,872,349
Top 20 Inst. 62.25 45.98 5,448,786
Top 50 Inst. 65.30 48.27 5,720,803
Total Inst. 65.30 48.27 5,720,803
Institutional Shareholder Style
Shareholder Holders Values ($) % O/S Shares
Index 5 5 4.09 484,659
CoreGrowth 6 7 5.49 650,732
Growth 1 1 0.84 99,895
IncomeValue 1 0 0.20 23,192
BrokerDealer 7 4 2.81 333,334
GARP 5 3 2.53 299,388
HedgeFund 8 7 5.66 670,341
Specialty 1 0 0.09 11,098
CoreValue 5 1 0.39 45,659
DeepValue 3 1 0.58 68,904
Top Holders: Institutional Investor
Holder Shares Held % O/S Shares Change Filing Date
Gladstone (David John) 2,203,985 18.60 20,000 06/14/2017
Gladstone Future Trust 666,667 5.63 0 02/21/2017
Renaissance Technologies LLC 445,700 3.76 68,800 03/31/2017
New Jersey Division of Investment 344,000 2.90 0 03/31/2017
The Vanguard Group, Inc. 302,108 2.55 25,465 03/31/2017
Wells Fargo Advisors 277,976 2.35 -3,125 03/31/2017
Foster & Motley, Inc. 209,003 1.76 209,003 03/31/2017
Marathon Capital Management 181,490 1.53 -13,162 03/31/2017
Bard Associates Inc. 134,650 1.14 -700 03/31/2017
Diligent Investors, LLC 106,770 0.90 8,642 03/31/2017
KBI Global Investors Ltd 99,895 0.84 41,222 06/30/2016
Horizon Kinetics LLC 88,710 0.75 -268 03/31/2017
Geode Capital Management, L.L.C. 80,926 0.68 84 03/31/2017
Amundi Asset Management 72,095 0.61 6,141 03/31/2017
Deutsche Asset Management Americas 61,114 0.52 28,638 03/31/2017
BlackRock Institutional Trust Company, N.A. 40,852 0.34 2,291 03/31/2017
Northern Trust Investments, Inc. 36,379 0.31 14,902 03/31/2017
Shufro, Rose & Co., LLC 34,700 0.29 -1,500 03/31/2017
Keeley-Teton Advisors, LLC 32,715 0.28 8 03/31/2017
Janney Montgomery Scott LLC 29,051 0.25 6,138 03/31/2017
Mellon Capital Management Corporation 24,394 0.21 798 03/31/2017
Millennium Management LLC 23,495 0.20 23,495 03/31/2017
BNY Mellon Asset Management 23,192 0.20 4,987 03/31/2017
Oppenheimer Asset Management Inc. 21,098 0.18 21,098 03/31/2017
Ladenburg Thalmann Asset Management Inc. (LTAM) 17,000 0.14 17,000 03/31/2017
Loeb Partners Corporation 15,500 0.13 0 03/31/2017
T. Rowe Price Associates, Inc. 12,900 0.11 0 03/31/2017
Morgan Stanley Wealth Management 12,871 0.11 321 03/31/2017
Stelac Advisory Services LLC 11,297 0.10 250 03/31/2017
SEI Investments Management Corporation 11,098 0.09 1,007 03/31/2017
State Teachers Retirement System of Ohio 10,652 0.09 -260 03/31/2017
J.P. Morgan Securities LLC 9,890 0.08 929 03/31/2017
FCA Corp. 9,700 0.08 0 01/31/2017
Bank of America Merrill Lynch (US) 9,618 0.08 118 03/31/2017
Northern Trust Global Investments 9,387 0.08 -300 03/31/2017
Adelgren (Paul W) 9,143 0.08 1,170 03/15/2017
RBC Capital Markets Wealth Management 5,904 0.05 5,704 03/31/2017
Parker (Anthony W) 5,395 0.05 234 02/21/2017
PanAgora Asset Management Inc. 5,190 0.04 0 03/31/2017
Wilkinson (Walter H Jr) 4,882 0.04 163 02/21/2017
Merrick (Caren D) 4,432 0.04 0 02/21/2017
Parrish Lewis 3,000 0.03 500 03/14/2017
Guggenheim Investments 2,720 0.02 -586 03/31/2017
Outland (John H) 1,699 0.01 75 02/21/2017
AXA Rosenberg Investment Management LLC 1,489 0.01 181 03/31/2017
BlackRock Investment Management, LLC 1,489 0.01 181 03/31/2017
English (Michela A) 1,230 0.01 200 03/15/2017
UBS Financial Services, Inc. 1,200 0.01 -6,479 03/31/2017
South Georgia Capital, LLC 1,152 0.01 15 09/30/2015
Fieldpoint Private Bank & Trust 1,000 0.01 1,000 03/31/2017

Ownership data is provided by Thomson Reuters, a third party service, and Gladstone Land Corporation does not maintain or provide information directly to this service.